sensor_id;sensor_type;location;lat;lon;timestamp;P1;durP1;ratioP1;P2;durP2;ratioP2
24787;SDS011;12883;52.662;5.196;2024-03-08T00:00:03;26.30;;;26.20;;
24787;SDS011;12883;52.662;5.196;2024-03-08T02:44:35;24.43;;;24.33;;
24787;SDS011;12883;52.662;5.196;2024-03-08T02:47:01;23.67;;;23.57;;
24787;SDS011;12883;52.662;5.196;2024-03-08T02:49:26;25.40;;;25.30;;
24787;SDS011;12883;52.662;5.196;2024-03-08T02:51:52;24.73;;;24.63;;
24787;SDS011;12883;52.662;5.196;2024-03-08T02:54:18;24.17;;;24.07;;
24787;SDS011;12883;52.662;5.196;2024-03-08T02:56:44;24.53;;;24.43;;
24787;SDS011;12883;52.662;5.196;2024-03-08T02:59:11;26.13;;;26.03;;
24787;SDS011;12883;52.662;5.196;2024-03-08T03:01:37;25.60;;;25.50;;
24787;SDS011;12883;52.662;5.196;2024-03-08T03:04:03;24.43;;;24.33;;
24787;SDS011;12883;52.662;5.196;2024-03-08T03:06:29;25.37;;;25.27;;
24787;SDS011;12883;52.662;5.196;2024-03-08T03:08:54;25.47;;;25.37;;
24787;SDS011;12883;52.662;5.196;2024-03-08T03:11:19;26.00;;;25.90;;
24787;SDS011;12883;52.662;5.196;2024-03-08T03:13:45;25.90;;;25.80;;
24787;SDS011;12883;52.662;5.196;2024-03-08T03:16:16;26.57;;;26.47;;
24787;SDS011;12883;52.662;5.196;2024-03-08T03:18:43;25.90;;;25.80;;
24787;SDS011;12883;52.662;5.196;2024-03-08T03:21:09;26.70;;;26.60;;
24787;SDS011;12883;52.662;5.196;2024-03-08T03:23:34;26.63;;;26.53;;
24787;SDS011;12883;52.662;5.196;2024-03-08T03:26:00;26.33;;;26.23;;
24787;SDS011;12883;52.662;5.196;2024-03-08T03:28:27;27.07;;;26.97;;
24787;SDS011;12883;52.662;5.196;2024-03-08T03:30:53;25.90;;;25.80;;
24787;SDS011;12883;52.662;5.196;2024-03-08T03:33:18;26.83;;;26.73;;
24787;SDS011;12883;52.662;5.196;2024-03-08T03:35:44;27.23;;;27.13;;
24787;SDS011;12883;52.662;5.196;2024-03-08T03:38:10;24.93;;;24.83;;
24787;SDS011;12883;52.662;5.196;2024-03-08T03:40:36;26.87;;;26.77;;
24787;SDS011;12883;52.662;5.196;2024-03-08T03:43:02;26.47;;;26.37;;
24787;SDS011;12883;52.662;5.196;2024-03-08T03:45:28;27.20;;;27.10;;
24787;SDS011;12883;52.662;5.196;2024-03-08T03:47:54;27.07;;;26.97;;
24787;SDS011;12883;52.662;5.196;2024-03-08T03:50:20;27.30;;;27.20;;
24787;SDS011;12883;52.662;5.196;2024-03-08T03:52:47;27.63;;;27.53;;
24787;SDS011;12883;52.662;5.196;2024-03-08T03:55:13;27.67;;;27.57;;
24787;SDS011;12883;52.662;5.196;2024-03-08T03:57:39;28.00;;;27.90;;
24787;SDS011;12883;52.662;5.196;2024-03-08T04:00:06;28.60;;;28.50;;
24787;SDS011;12883;52.662;5.196;2024-03-08T04:02:36;28.17;;;28.00;;
24787;SDS011;12883;52.662;5.196;2024-03-08T04:05:03;28.57;;;28.37;;
24787;SDS011;12883;52.662;5.196;2024-03-08T04:07:30;26.80;;;26.70;;
24787;SDS011;12883;52.662;5.196;2024-03-08T04:09:55;28.77;;;28.60;;
24787;SDS011;12883;52.662;5.196;2024-03-08T04:12:20;29.33;;;29.17;;
24787;SDS011;12883;52.662;5.196;2024-03-08T04:14:46;28.53;;;28.33;;
24787;SDS011;12883;52.662;5.196;2024-03-08T04:17:11;27.97;;;27.77;;
24787;SDS011;12883;52.662;5.196;2024-03-08T04:19:38;27.73;;;27.63;;
24787;SDS011;12883;52.662;5.196;2024-03-08T04:22:05;28.40;;;28.30;;
24787;SDS011;12883;52.662;5.196;2024-03-08T04:24:32;28.70;;;28.60;;
24787;SDS011;12883;52.662;5.196;2024-03-08T04:26:58;27.90;;;27.80;;
24787;SDS011;12883;52.662;5.196;2024-03-08T04:29:24;28.10;;;28.00;;
24787;SDS011;12883;52.662;5.196;2024-03-08T04:31:49;27.93;;;27.83;;
24787;SDS011;12883;52.662;5.196;2024-03-08T04:34:19;29.00;;;28.90;;
24787;SDS011;12883;52.662;5.196;2024-03-08T04:36:50;29.67;;;29.47;;
24787;SDS011;12883;52.662;5.196;2024-03-08T04:39:15;29.00;;;28.90;;
24787;SDS011;12883;52.662;5.196;2024-03-08T04:41:41;29.60;;;29.40;;
24787;SDS011;12883;52.662;5.196;2024-03-08T04:44:08;27.63;;;27.53;;
24787;SDS011;12883;52.662;5.196;2024-03-08T04:46:34;28.60;;;28.50;;
24787;SDS011;12883;52.662;5.196;2024-03-08T04:49:00;28.17;;;28.07;;
24787;SDS011;12883;52.662;5.196;2024-03-08T04:51:26;29.27;;;29.07;;
24787;SDS011;12883;52.662;5.196;2024-03-08T04:53:52;29.50;;;29.30;;
24787;SDS011;12883;52.662;5.196;2024-03-08T04:56:17;28.07;;;27.97;;
24787;SDS011;12883;52.662;5.196;2024-03-08T04:58:45;28.17;;;28.07;;
24787;SDS011;12883;52.662;5.196;2024-03-08T05:01:13;29.43;;;29.33;;
24787;SDS011;12883;52.662;5.196;2024-03-08T05:03:39;30.17;;;30.03;;
24787;SDS011;12883;52.662;5.196;2024-03-08T05:06:04;28.70;;;28.60;;
24787;SDS011;12883;52.662;5.196;2024-03-08T05:08:30;29.90;;;29.80;;
24787;SDS011;12883;52.662;5.196;2024-03-08T05:10:55;28.60;;;28.50;;
24787;SDS011;12883;52.662;5.196;2024-03-08T05:13:21;29.00;;;28.83;;
24787;SDS011;12883;52.662;5.196;2024-03-08T05:15:49;28.10;;;28.00;;
24787;SDS011;12883;52.662;5.196;2024-03-08T05:18:18;28.97;;;28.77;;
24787;SDS011;12883;52.662;5.196;2024-03-08T05:20:43;29.23;;;29.13;;
24787;SDS011;12883;52.662;5.196;2024-03-08T05:23:08;28.83;;;28.63;;
24787;SDS011;12883;52.662;5.196;2024-03-08T05:25:34;27.67;;;27.57;;
24787;SDS011;12883;52.662;5.196;2024-03-08T05:27:59;28.90;;;28.80;;
24787;SDS011;12883;52.662;5.196;2024-03-08T05:30:25;27.80;;;27.70;;
24787;SDS011;12883;52.662;5.196;2024-03-08T05:32:50;30.93;;;30.73;;
24787;SDS011;12883;52.662;5.196;2024-03-08T05:35:16;29.47;;;29.37;;
24787;SDS011;12883;52.662;5.196;2024-03-08T05:37:42;28.47;;;28.37;;
24787;SDS011;12883;52.662;5.196;2024-03-08T05:40:08;29.70;;;29.60;;
24787;SDS011;12883;52.662;5.196;2024-03-08T05:42:36;28.87;;;28.67;;
24787;SDS011;12883;52.662;5.196;2024-03-08T05:45:02;28.90;;;28.80;;
24787;SDS011;12883;52.662;5.196;2024-03-08T05:47:35;27.60;;;27.50;;
24787;SDS011;12883;52.662;5.196;2024-03-08T05:50:01;29.10;;;29.00;;
24787;SDS011;12883;52.662;5.196;2024-03-08T05:52:27;28.13;;;28.03;;
24787;SDS011;12883;52.662;5.196;2024-03-08T05:54:52;28.63;;;28.53;;
24787;SDS011;12883;52.662;5.196;2024-03-08T05:57:17;28.60;;;28.50;;
24787;SDS011;12883;52.662;5.196;2024-03-08T05:59:43;28.90;;;28.80;;
24787;SDS011;12883;52.662;5.196;2024-03-08T06:02:08;28.93;;;28.83;;
24787;SDS011;12883;52.662;5.196;2024-03-08T06:04:33;29.20;;;29.10;;
24787;SDS011;12883;52.662;5.196;2024-03-08T06:06:59;28.80;;;28.70;;
24787;SDS011;12883;52.662;5.196;2024-03-08T06:09:24;27.70;;;27.60;;
24787;SDS011;12883;52.662;5.196;2024-03-08T06:11:51;29.37;;;29.20;;
24787;SDS011;12883;52.662;5.196;2024-03-08T06:14:17;29.87;;;29.77;;
24787;SDS011;12883;52.662;5.196;2024-03-08T06:16:46;29.00;;;28.90;;
24787;SDS011;12883;52.662;5.196;2024-03-08T06:19:12;28.80;;;28.70;;
24787;SDS011;12883;52.662;5.196;2024-03-08T06:21:38;29.20;;;29.10;;
24787;SDS011;12883;52.662;5.196;2024-03-08T06:24:04;28.83;;;28.73;;
24787;SDS011;12883;52.662;5.196;2024-03-08T06:26:30;29.80;;;29.70;;
24787;SDS011;12883;52.662;5.196;2024-03-08T06:28:56;29.87;;;29.67;;
24787;SDS011;12883;52.662;5.196;2024-03-08T06:31:21;30.47;;;30.37;;
24787;SDS011;12883;52.662;5.196;2024-03-08T06:33:47;31.53;;;31.33;;
24787;SDS011;12883;52.662;5.196;2024-03-08T06:36:16;32.67;;;32.50;;
24787;SDS011;12883;52.662;5.196;2024-03-08T06:38:44;30.00;;;29.90;;
24787;SDS011;12883;52.662;5.196;2024-03-08T06:41:15;30.97;;;30.87;;
24787;SDS011;12883;52.662;5.196;2024-03-08T06:43:41;30.43;;;30.33;;
24787;SDS011;12883;52.662;5.196;2024-03-08T06:46:10;32.80;;;32.60;;
24787;SDS011;12883;52.662;5.196;2024-03-08T06:48:37;32.43;;;32.23;;
24787;SDS011;12883;52.662;5.196;2024-03-08T06:51:03;32.67;;;32.47;;
24787;SDS011;12883;52.662;5.196;2024-03-08T06:53:30;31.47;;;31.27;;
24787;SDS011;12883;52.662;5.196;2024-03-08T06:55:55;31.90;;;31.70;;
24787;SDS011;12883;52.662;5.196;2024-03-08T06:58:21;30.87;;;30.67;;
24787;SDS011;12883;52.662;5.196;2024-03-08T07:00:46;31.83;;;31.63;;
24787;SDS011;12883;52.662;5.196;2024-03-08T07:03:12;31.67;;;31.50;;
24787;SDS011;12883;52.662;5.196;2024-03-08T07:05:42;31.73;;;31.63;;
24787;SDS011;12883;52.662;5.196;2024-03-08T07:08:07;31.63;;;31.43;;
24787;SDS011;12883;52.662;5.196;2024-03-08T07:10:33;29.93;;;29.83;;
24787;SDS011;12883;52.662;5.196;2024-03-08T07:12:59;32.37;;;32.17;;
24787;SDS011;12883;52.662;5.196;2024-03-08T07:15:27;31.57;;;31.37;;
24787;SDS011;12883;52.662;5.196;2024-03-08T07:17:53;31.03;;;30.93;;
24787;SDS011;12883;52.662;5.196;2024-03-08T07:20:18;31.37;;;31.17;;
24787;SDS011;12883;52.662;5.196;2024-03-08T07:22:47;30.10;;;29.90;;
24787;SDS011;12883;52.662;5.196;2024-03-08T07:25:13;29.47;;;29.37;;
24787;SDS011;12883;52.662;5.196;2024-03-08T07:27:54;30.30;;;30.10;;
24787;SDS011;12883;52.662;5.196;2024-03-08T07:30:21;29.53;;;29.43;;
24787;SDS011;12883;52.662;5.196;2024-03-08T07:33:12;30.40;;;30.20;;
24787;SDS011;12883;52.662;5.196;2024-03-08T07:35:38;30.13;;;30.03;;
24787;SDS011;12883;52.662;5.196;2024-03-08T07:40:30;30.83;;;30.73;;
24787;SDS011;12883;52.662;5.196;2024-03-08T07:42:56;29.07;;;28.97;;
24787;SDS011;12883;52.662;5.196;2024-03-08T07:45:23;29.97;;;29.87;;
24787;SDS011;12883;52.662;5.196;2024-03-08T07:47:48;30.37;;;30.17;;
24787;SDS011;12883;52.662;5.196;2024-03-08T07:50:15;29.03;;;28.93;;
24787;SDS011;12883;52.662;5.196;2024-03-08T07:52:41;30.07;;;29.87;;
24787;SDS011;12883;52.662;5.196;2024-03-08T07:55:07;29.40;;;29.30;;
24787;SDS011;12883;52.662;5.196;2024-03-08T07:57:33;30.20;;;30.03;;
24787;SDS011;12883;52.662;5.196;2024-03-08T07:59:58;31.00;;;30.80;;
24787;SDS011;12883;52.662;5.196;2024-03-08T08:02:23;31.57;;;31.37;;
24787;SDS011;12883;52.662;5.196;2024-03-08T08:04:49;30.83;;;30.70;;
24787;SDS011;12883;52.662;5.196;2024-03-08T08:07:14;29.43;;;29.23;;
24787;SDS011;12883;52.662;5.196;2024-03-08T08:09:40;29.23;;;29.13;;
24787;SDS011;12883;52.662;5.196;2024-03-08T08:12:07;29.77;;;29.60;;
24787;SDS011;12883;52.662;5.196;2024-03-08T08:14:37;29.73;;;29.63;;
24787;SDS011;12883;52.662;5.196;2024-03-08T08:17:03;29.43;;;29.33;;
24787;SDS011;12883;52.662;5.196;2024-03-08T08:19:29;29.13;;;29.03;;
24787;SDS011;12883;52.662;5.196;2024-03-08T08:21:54;29.57;;;29.47;;
24787;SDS011;12883;52.662;5.196;2024-03-08T08:24:20;29.40;;;29.30;;
24787;SDS011;12883;52.662;5.196;2024-03-08T08:26:47;28.10;;;28.00;;
24787;SDS011;12883;52.662;5.196;2024-03-08T08:29:12;29.83;;;29.63;;
24787;SDS011;12883;52.662;5.196;2024-03-08T08:31:37;30.93;;;30.73;;
24787;SDS011;12883;52.662;5.196;2024-03-08T08:34:03;29.80;;;29.70;;
24787;SDS011;12883;52.662;5.196;2024-03-08T08:36:28;30.40;;;30.30;;
24787;SDS011;12883;52.662;5.196;2024-03-08T08:38:55;29.27;;;29.17;;
24787;SDS011;12883;52.662;5.196;2024-03-08T08:41:21;28.37;;;28.27;;
24787;SDS011;12883;52.662;5.196;2024-03-08T08:43:47;28.97;;;28.87;;
24787;SDS011;12883;52.662;5.196;2024-03-08T08:46:16;29.77;;;29.67;;
24787;SDS011;12883;52.662;5.196;2024-03-08T08:48:42;29.67;;;29.47;;
24787;SDS011;12883;52.662;5.196;2024-03-08T08:51:10;29.33;;;29.23;;
24787;SDS011;12883;52.662;5.196;2024-03-08T08:53:39;28.30;;;28.20;;
24787;SDS011;12883;52.662;5.196;2024-03-08T08:56:08;28.73;;;28.63;;
24787;SDS011;12883;52.662;5.196;2024-03-08T08:58:40;28.43;;;28.23;;
24787;SDS011;12883;52.662;5.196;2024-03-08T09:01:09;29.00;;;28.90;;
24787;SDS011;12883;52.662;5.196;2024-03-08T09:03:37;28.17;;;28.07;;
24787;SDS011;12883;52.662;5.196;2024-03-08T09:06:05;27.27;;;27.17;;
24787;SDS011;12883;52.662;5.196;2024-03-08T09:08:34;27.47;;;27.37;;
24787;SDS011;12883;52.662;5.196;2024-03-08T09:11:03;28.90;;;28.80;;
24787;SDS011;12883;52.662;5.196;2024-03-08T09:13:29;27.63;;;27.53;;
24787;SDS011;12883;52.662;5.196;2024-03-08T09:15:54;26.27;;;26.17;;
24787;SDS011;12883;52.662;5.196;2024-03-08T09:18:20;29.00;;;28.90;;
24787;SDS011;12883;52.662;5.196;2024-03-08T09:20:45;27.00;;;26.90;;
24787;SDS011;12883;52.662;5.196;2024-03-08T09:23:12;27.00;;;26.90;;
24787;SDS011;12883;52.662;5.196;2024-03-08T09:25:37;27.10;;;27.00;;
24787;SDS011;12883;52.662;5.196;2024-03-08T09:28:02;28.67;;;28.57;;
24787;SDS011;12883;52.662;5.196;2024-03-08T09:30:28;28.70;;;28.53;;
24787;SDS011;12883;52.662;5.196;2024-03-08T09:32:53;27.53;;;27.43;;
24787;SDS011;12883;52.662;5.196;2024-03-08T09:35:19;26.90;;;26.80;;
24787;SDS011;12883;52.662;5.196;2024-03-08T09:37:44;26.60;;;26.50;;
24787;SDS011;12883;52.662;5.196;2024-03-08T09:40:12;28.37;;;28.27;;
24787;SDS011;12883;52.662;5.196;2024-03-08T09:42:40;28.73;;;28.63;;
24787;SDS011;12883;52.662;5.196;2024-03-08T09:45:10;27.53;;;27.43;;
24787;SDS011;12883;52.662;5.196;2024-03-08T09:47:38;28.27;;;28.17;;
24787;SDS011;12883;52.662;5.196;2024-03-08T09:50:06;28.37;;;28.27;;
24787;SDS011;12883;52.662;5.196;2024-03-08T09:52:35;28.80;;;28.70;;
24787;SDS011;12883;52.662;5.196;2024-03-08T09:55:03;28.33;;;28.23;;
24787;SDS011;12883;52.662;5.196;2024-03-08T09:57:31;27.83;;;27.73;;
24787;SDS011;12883;52.662;5.196;2024-03-08T09:59:58;27.03;;;26.93;;
24787;SDS011;12883;52.662;5.196;2024-03-08T10:02:24;28.03;;;27.93;;
24787;SDS011;12883;52.662;5.196;2024-03-08T10:04:49;28.80;;;28.70;;
24787;SDS011;12883;52.662;5.196;2024-03-08T10:07:18;28.23;;;28.13;;
24787;SDS011;12883;52.662;5.196;2024-03-08T10:09:44;28.37;;;28.27;;
24787;SDS011;12883;52.662;5.196;2024-03-08T10:12:15;27.97;;;27.87;;
24787;SDS011;12883;52.662;5.196;2024-03-08T10:14:42;27.87;;;27.77;;
24787;SDS011;12883;52.662;5.196;2024-03-08T10:17:07;29.27;;;29.17;;
24787;SDS011;12883;52.662;5.196;2024-03-08T10:19:33;29.00;;;28.80;;
24787;SDS011;12883;52.662;5.196;2024-03-08T10:21:59;28.00;;;27.90;;
24787;SDS011;12883;52.662;5.196;2024-03-08T10:24:24;27.90;;;27.80;;
24787;SDS011;12883;52.662;5.196;2024-03-08T10:26:53;29.07;;;28.97;;
24787;SDS011;12883;52.662;5.196;2024-03-08T10:29:24;28.17;;;28.07;;
24787;SDS011;12883;52.662;5.196;2024-03-08T10:31:50;27.87;;;27.77;;
24787;SDS011;12883;52.662;5.196;2024-03-08T10:34:16;28.83;;;28.73;;
24787;SDS011;12883;52.662;5.196;2024-03-08T10:36:42;27.63;;;27.53;;
24787;SDS011;12883;52.662;5.196;2024-03-08T10:39:19;27.23;;;27.13;;
24787;SDS011;12883;52.662;5.196;2024-03-08T10:41:49;28.07;;;27.97;;
24787;SDS011;12883;52.662;5.196;2024-03-08T10:47:09;27.80;;;27.63;;
24787;SDS011;12883;52.662;5.196;2024-03-08T10:49:54;28.23;;;28.13;;
24787;SDS011;12883;52.662;5.196;2024-03-08T10:52:28;27.90;;;27.80;;
24787;SDS011;12883;52.662;5.196;2024-03-08T10:54:54;27.33;;;27.23;;
24787;SDS011;12883;52.662;5.196;2024-03-08T10:57:22;28.03;;;27.93;;
24787;SDS011;12883;52.662;5.196;2024-03-08T10:59:49;28.53;;;28.43;;
24787;SDS011;12883;52.662;5.196;2024-03-08T11:02:16;28.87;;;28.77;;
24787;SDS011;12883;52.662;5.196;2024-03-08T11:04:46;28.60;;;28.50;;
24787;SDS011;12883;52.662;5.196;2024-03-08T11:07:15;27.23;;;27.13;;
24787;SDS011;12883;52.662;5.196;2024-03-08T11:09:43;27.63;;;27.53;;
24787;SDS011;12883;52.662;5.196;2024-03-08T11:14:47;28.30;;;28.20;;
24787;SDS011;12883;52.662;5.196;2024-03-08T11:17:59;27.87;;;27.77;;
24787;SDS011;12883;52.662;5.196;2024-03-08T11:20:03;27.37;;;27.27;;
24787;SDS011;12883;52.662;5.196;2024-03-08T11:22:40;27.53;;;27.43;;
24787;SDS011;12883;52.662;5.196;2024-03-08T11:25:41;27.67;;;27.57;;
24787;SDS011;12883;52.662;5.196;2024-03-08T11:28:13;27.57;;;27.47;;
24787;SDS011;12883;52.662;5.196;2024-03-08T11:30:42;27.30;;;27.20;;
24787;SDS011;12883;52.662;5.196;2024-03-08T11:33:12;29.43;;;29.33;;
24787;SDS011;12883;52.662;5.196;2024-03-08T11:35:38;28.87;;;28.77;;
24787;SDS011;12883;52.662;5.196;2024-03-08T11:38:04;29.50;;;29.40;;
24787;SDS011;12883;52.662;5.196;2024-03-08T11:40:30;28.27;;;28.17;;
24787;SDS011;12883;52.662;5.196;2024-03-08T11:42:58;27.23;;;27.13;;
24787;SDS011;12883;52.662;5.196;2024-03-08T11:45:24;28.17;;;28.07;;
24787;SDS011;12883;52.662;5.196;2024-03-08T11:47:50;28.03;;;27.93;;
24787;SDS011;12883;52.662;5.196;2024-03-08T11:50:15;26.87;;;26.77;;
24787;SDS011;12883;52.662;5.196;2024-03-08T11:52:41;28.10;;;28.00;;
24787;SDS011;12883;52.662;5.196;2024-03-08T11:55:07;28.10;;;28.00;;
24787;SDS011;12883;52.662;5.196;2024-03-08T11:57:33;27.80;;;27.70;;
24787;SDS011;12883;52.662;5.196;2024-03-08T11:59:59;27.73;;;27.63;;
24787;SDS011;12883;52.662;5.196;2024-03-08T12:02:34;28.07;;;27.97;;
24787;SDS011;12883;52.662;5.196;2024-03-08T12:05:05;26.97;;;26.87;;
24787;SDS011;12883;52.662;5.196;2024-03-08T12:07:31;27.33;;;27.23;;
24787;SDS011;12883;52.662;5.196;2024-03-08T12:10:19;27.27;;;27.17;;
24787;SDS011;12883;52.662;5.196;2024-03-08T12:12:51;28.23;;;28.13;;
24787;SDS011;12883;52.662;5.196;2024-03-08T12:15:18;28.37;;;28.27;;
24787;SDS011;12883;52.662;5.196;2024-03-08T12:17:44;27.10;;;27.00;;
24787;SDS011;12883;52.662;5.196;2024-03-08T12:20:20;27.13;;;27.03;;
24787;SDS011;12883;52.662;5.196;2024-03-08T12:22:47;26.63;;;26.53;;
24787;SDS011;12883;52.662;5.196;2024-03-08T12:25:14;25.90;;;25.80;;
24787;SDS011;12883;52.662;5.196;2024-03-08T12:27:41;27.13;;;27.03;;
24787;SDS011;12883;52.662;5.196;2024-03-08T12:33:17;26.07;;;25.97;;
24787;SDS011;12883;52.662;5.196;2024-03-08T12:35:50;26.40;;;26.30;;
24787;SDS011;12883;52.662;5.196;2024-03-08T12:38:18;27.57;;;27.47;;
24787;SDS011;12883;52.662;5.196;2024-03-08T12:40:49;26.70;;;26.60;;
24787;SDS011;12883;52.662;5.196;2024-03-08T12:43:15;27.47;;;27.37;;
24787;SDS011;12883;52.662;5.196;2024-03-08T12:45:41;27.80;;;27.70;;
24787;SDS011;12883;52.662;5.196;2024-03-08T12:48:12;26.50;;;26.40;;
24787;SDS011;12883;52.662;5.196;2024-03-08T12:50:42;27.90;;;27.80;;
24787;SDS011;12883;52.662;5.196;2024-03-08T12:53:12;27.33;;;27.23;;
24787;SDS011;12883;52.662;5.196;2024-03-08T12:55:38;25.90;;;25.80;;
24787;SDS011;12883;52.662;5.196;2024-03-08T12:58:03;26.33;;;26.23;;
24787;SDS011;12883;52.662;5.196;2024-03-08T13:00:32;26.47;;;26.37;;
24787;SDS011;12883;52.662;5.196;2024-03-08T13:03:01;25.57;;;25.47;;
24787;SDS011;12883;52.662;5.196;2024-03-08T13:05:27;26.53;;;26.43;;
24787;SDS011;12883;52.662;5.196;2024-03-08T13:07:52;27.27;;;27.17;;
24787;SDS011;12883;52.662;5.196;2024-03-08T13:10:20;25.70;;;25.60;;
24787;SDS011;12883;52.662;5.196;2024-03-08T13:12:45;25.87;;;25.77;;
24787;SDS011;12883;52.662;5.196;2024-03-08T13:15:11;25.83;;;25.73;;
24787;SDS011;12883;52.662;5.196;2024-03-08T13:17:40;24.60;;;24.50;;
24787;SDS011;12883;52.662;5.196;2024-03-08T13:20:07;25.23;;;25.13;;
24787;SDS011;12883;52.662;5.196;2024-03-08T13:22:33;25.33;;;25.23;;
24787;SDS011;12883;52.662;5.196;2024-03-08T13:24:59;25.50;;;25.40;;
24787;SDS011;12883;52.662;5.196;2024-03-08T13:27:26;25.57;;;25.47;;
24787;SDS011;12883;52.662;5.196;2024-03-08T13:29:52;25.47;;;25.37;;
24787;SDS011;12883;52.662;5.196;2024-03-08T13:32:18;25.80;;;25.70;;
24787;SDS011;12883;52.662;5.196;2024-03-08T13:34:45;25.00;;;24.90;;
24787;SDS011;12883;52.662;5.196;2024-03-08T13:37:12;23.40;;;23.30;;
24787;SDS011;12883;52.662;5.196;2024-03-08T13:39:41;24.20;;;24.10;;
24787;SDS011;12883;52.662;5.196;2024-03-08T13:42:09;23.20;;;23.10;;
24787;SDS011;12883;52.662;5.196;2024-03-08T13:44:37;23.47;;;23.37;;
24787;SDS011;12883;52.662;5.196;2024-03-08T13:47:04;25.17;;;25.07;;
24787;SDS011;12883;52.662;5.196;2024-03-08T13:49:29;23.97;;;23.87;;
24787;SDS011;12883;52.662;5.196;2024-03-08T13:51:55;24.53;;;24.43;;
24787;SDS011;12883;52.662;5.196;2024-03-08T13:54:23;24.70;;;24.60;;
24787;SDS011;12883;52.662;5.196;2024-03-08T13:56:49;23.37;;;23.27;;
24787;SDS011;12883;52.662;5.196;2024-03-08T13:59:17;23.30;;;23.20;;
24787;SDS011;12883;52.662;5.196;2024-03-08T14:01:43;24.73;;;24.63;;
24787;SDS011;12883;52.662;5.196;2024-03-08T14:04:09;24.33;;;24.23;;
24787;SDS011;12883;52.662;5.196;2024-03-08T14:06:34;23.57;;;23.47;;
24787;SDS011;12883;52.662;5.196;2024-03-08T14:09:00;22.73;;;22.63;;
24787;SDS011;12883;52.662;5.196;2024-03-08T14:11:26;24.73;;;24.63;;
24787;SDS011;12883;52.662;5.196;2024-03-08T14:13:52;23.13;;;23.03;;
24787;SDS011;12883;52.662;5.196;2024-03-08T14:16:18;23.17;;;23.07;;
24787;SDS011;12883;52.662;5.196;2024-03-08T14:18:44;22.43;;;22.33;;
24787;SDS011;12883;52.662;5.196;2024-03-08T14:21:09;21.87;;;21.77;;
24787;SDS011;12883;52.662;5.196;2024-03-08T14:23:35;22.77;;;22.67;;
24787;SDS011;12883;52.662;5.196;2024-03-08T14:26:01;22.33;;;22.23;;
24787;SDS011;12883;52.662;5.196;2024-03-08T14:28:28;22.13;;;22.03;;
24787;SDS011;12883;52.662;5.196;2024-03-08T14:30:53;23.13;;;23.03;;
24787;SDS011;12883;52.662;5.196;2024-03-08T14:33:19;22.47;;;22.37;;
24787;SDS011;12883;52.662;5.196;2024-03-08T14:35:44;23.30;;;23.20;;
24787;SDS011;12883;52.662;5.196;2024-03-08T14:38:12;23.67;;;23.57;;
24787;SDS011;12883;52.662;5.196;2024-03-08T14:40:38;22.83;;;22.73;;
24787;SDS011;12883;52.662;5.196;2024-03-08T14:43:04;23.50;;;23.40;;
24787;SDS011;12883;52.662;5.196;2024-03-08T14:45:30;23.23;;;23.13;;
24787;SDS011;12883;52.662;5.196;2024-03-08T14:47:56;22.23;;;22.13;;
24787;SDS011;12883;52.662;5.196;2024-03-08T14:50:22;21.73;;;21.63;;
24787;SDS011;12883;52.662;5.196;2024-03-08T14:52:49;21.83;;;21.73;;
24787;SDS011;12883;52.662;5.196;2024-03-08T14:55:16;22.33;;;22.23;;
24787;SDS011;12883;52.662;5.196;2024-03-08T14:57:50;21.30;;;21.20;;
24787;SDS011;12883;52.662;5.196;2024-03-08T15:00:17;22.97;;;22.87;;
24787;SDS011;12883;52.662;5.196;2024-03-08T15:02:51;23.37;;;23.27;;
24787;SDS011;12883;52.662;5.196;2024-03-08T15:05:21;22.07;;;21.97;;
24787;SDS011;12883;52.662;5.196;2024-03-08T15:07:51;22.17;;;22.07;;
24787;SDS011;12883;52.662;5.196;2024-03-08T15:10:17;20.90;;;20.80;;
24787;SDS011;12883;52.662;5.196;2024-03-08T15:12:45;20.30;;;20.20;;
24787;SDS011;12883;52.662;5.196;2024-03-08T15:15:14;21.60;;;21.50;;
24787;SDS011;12883;52.662;5.196;2024-03-08T15:17:43;21.87;;;21.77;;
24787;SDS011;12883;52.662;5.196;2024-03-08T15:20:12;23.40;;;23.30;;
24787;SDS011;12883;52.662;5.196;2024-03-08T15:22:51;21.90;;;21.80;;
24787;SDS011;12883;52.662;5.196;2024-03-08T15:25:23;22.50;;;22.40;;
24787;SDS011;12883;52.662;5.196;2024-03-08T15:27:52;21.50;;;21.40;;
24787;SDS011;12883;52.662;5.196;2024-03-08T15:30:18;22.10;;;22.00;;
24787;SDS011;12883;52.662;5.196;2024-03-08T15:32:47;22.30;;;22.20;;
24787;SDS011;12883;52.662;5.196;2024-03-08T15:35:15;24.10;;;24.00;;
24787;SDS011;12883;52.662;5.196;2024-03-08T15:37:41;22.23;;;22.13;;
24787;SDS011;12883;52.662;5.196;2024-03-08T15:40:13;22.73;;;22.63;;
24787;SDS011;12883;52.662;5.196;2024-03-08T15:42:48;22.73;;;22.63;;
24787;SDS011;12883;52.662;5.196;2024-03-08T15:45:16;22.87;;;22.77;;
24787;SDS011;12883;52.662;5.196;2024-03-08T15:47:43;22.07;;;21.97;;
24787;SDS011;12883;52.662;5.196;2024-03-08T15:50:09;23.03;;;22.93;;
24787;SDS011;12883;52.662;5.196;2024-03-08T15:52:37;22.40;;;22.30;;
24787;SDS011;12883;52.662;5.196;2024-03-08T15:55:06;22.87;;;22.77;;
24787;SDS011;12883;52.662;5.196;2024-03-08T15:57:32;23.20;;;23.10;;
24787;SDS011;12883;52.662;5.196;2024-03-08T15:59:58;22.50;;;22.40;;
24787;SDS011;12883;52.662;5.196;2024-03-08T16:02:25;23.93;;;23.83;;
24787;SDS011;12883;52.662;5.196;2024-03-08T16:04:53;23.97;;;23.87;;
24787;SDS011;12883;52.662;5.196;2024-03-08T16:07:19;23.30;;;23.20;;
24787;SDS011;12883;52.662;5.196;2024-03-08T16:09:44;24.47;;;24.37;;
24787;SDS011;12883;52.662;5.196;2024-03-08T16:12:10;23.70;;;23.60;;
24787;SDS011;12883;52.662;5.196;2024-03-08T16:14:38;25.10;;;25.00;;
24787;SDS011;12883;52.662;5.196;2024-03-08T16:17:03;26.00;;;25.90;;
24787;SDS011;12883;52.662;5.196;2024-03-08T16:19:29;25.53;;;25.43;;
24787;SDS011;12883;52.662;5.196;2024-03-08T16:21:56;25.00;;;24.90;;
24787;SDS011;12883;52.662;5.196;2024-03-08T16:24:24;26.00;;;25.90;;
24787;SDS011;12883;52.662;5.196;2024-03-08T16:26:50;25.63;;;25.53;;
24787;SDS011;12883;52.662;5.196;2024-03-08T16:29:15;26.27;;;26.17;;
24787;SDS011;12883;52.662;5.196;2024-03-08T16:31:41;25.40;;;25.30;;
24787;SDS011;12883;52.662;5.196;2024-03-08T16:34:10;23.77;;;23.67;;
24787;SDS011;12883;52.662;5.196;2024-03-08T16:36:36;25.87;;;25.77;;
24787;SDS011;12883;52.662;5.196;2024-03-08T16:39:05;25.87;;;25.77;;
24787;SDS011;12883;52.662;5.196;2024-03-08T16:41:30;26.00;;;25.90;;
24787;SDS011;12883;52.662;5.196;2024-03-08T16:43:56;25.13;;;25.03;;
24787;SDS011;12883;52.662;5.196;2024-03-08T16:46:22;24.87;;;24.77;;
24787;SDS011;12883;52.662;5.196;2024-03-08T16:48:47;24.37;;;24.27;;
24787;SDS011;12883;52.662;5.196;2024-03-08T16:51:14;24.17;;;24.07;;
24787;SDS011;12883;52.662;5.196;2024-03-08T16:53:39;23.97;;;23.87;;
24787;SDS011;12883;52.662;5.196;2024-03-08T16:56:05;24.80;;;24.70;;
24787;SDS011;12883;52.662;5.196;2024-03-08T16:58:31;23.80;;;23.70;;
24787;SDS011;12883;52.662;5.196;2024-03-08T17:00:58;24.67;;;24.57;;
24787;SDS011;12883;52.662;5.196;2024-03-08T17:03:24;25.43;;;25.33;;
24787;SDS011;12883;52.662;5.196;2024-03-08T17:05:50;24.43;;;24.33;;
24787;SDS011;12883;52.662;5.196;2024-03-08T17:08:16;24.27;;;24.17;;
24787;SDS011;12883;52.662;5.196;2024-03-08T17:10:43;24.47;;;24.37;;
24787;SDS011;12883;52.662;5.196;2024-03-08T17:13:08;25.43;;;25.33;;